createdAt,value
2023-02-03T00:01:09.585Z,18.60
2023-02-03T00:04:04.238Z,18.60
2023-02-03T00:06:58.697Z,18.60
2023-02-03T00:09:55.656Z,18.70
2023-02-03T00:12:56.883Z,18.80
2023-02-03T00:15:51.141Z,18.80
2023-02-03T00:18:45.483Z,18.80
2023-02-03T00:21:39.775Z,18.70
2023-02-03T00:24:34.173Z,18.70
2023-02-03T00:27:28.566Z,18.60
2023-02-03T00:30:22.943Z,18.50
2023-02-03T00:33:17.545Z,18.40
2023-02-03T00:36:12.458Z,18.40
2023-02-03T00:39:07.130Z,18.30
2023-02-03T00:42:01.629Z,18.40
2023-02-03T00:44:55.926Z,18.50
2023-02-03T00:47:50.186Z,18.60
2023-02-03T00:50:44.587Z,18.60
2023-02-03T00:53:38.923Z,18.60
2023-02-03T00:56:33.232Z,18.60
2023-02-03T00:59:27.519Z,18.60
2023-02-03T01:02:21.923Z,18.60
2023-02-03T01:05:16.251Z,18.70
2023-02-03T01:08:19.398Z,18.80
2023-02-03T01:11:16.515Z,19.00
2023-02-03T01:14:11.529Z,19.30
2023-02-03T01:17:06.196Z,19.50
2023-02-03T01:20:00.767Z,19.80
2023-02-03T01:22:56.384Z,19.70
2023-02-03T01:25:53.827Z,19.50
2023-02-03T01:28:57.116Z,19.40
2023-02-03T01:31:51.609Z,19.60
2023-02-03T01:34:45.908Z,19.70
2023-02-03T01:37:40.198Z,19.80
2023-02-03T01:40:34.456Z,20.00
2023-02-03T01:43:33.965Z,20.10
2023-02-03T01:46:37.303Z,20.20
2023-02-03T01:49:37.513Z,20.20
2023-02-03T01:52:33.350Z,20.00
2023-02-03T01:55:34.415Z,19.70
2023-02-03T01:58:33.695Z,19.60
2023-02-03T02:01:30.057Z,19.50
2023-02-03T02:04:31.418Z,19.40
2023-02-03T02:07:26.985Z,19.20
2023-02-03T02:10:21.411Z,19.00
2023-02-03T02:13:17.181Z,18.90
2023-02-03T02:16:14.503Z,18.80
2023-02-03T02:19:26.610Z,18.80
2023-02-03T02:23:04.795Z,18.80
2023-02-03T02:26:25.503Z,18.80
2023-02-03T02:29:42.880Z,18.80
2023-02-03T02:32:44.606Z,18.90
2023-02-03T02:35:59.178Z,19.00
2023-02-03T02:39:09.978Z,19.10
2023-02-03T02:42:22.210Z,19.20
2023-02-03T02:45:29.026Z,19.40
2023-02-03T02:48:52.339Z,19.40
2023-02-03T02:51:49.800Z,19.50
2023-02-03T02:54:49.912Z,19.70
2023-02-03T02:57:45.728Z,19.90
2023-02-03T03:00:42.251Z,20.10
2023-02-03T03:03:38.702Z,20.10
2023-02-03T03:06:40.059Z,20.10
2023-02-03T03:09:46.696Z,19.90
2023-02-03T03:12:47.205Z,19.70
2023-02-03T03:15:42.879Z,19.30
2023-02-03T03:19:00.364Z,18.90
2023-02-03T03:22:19.388Z,18.80
2023-02-03T03:25:21.233Z,18.70
2023-02-03T03:28:22.753Z,18.80
2023-02-03T03:31:24.593Z,18.80
2023-02-03T03:34:19.775Z,19.00
2023-02-03T03:37:35.905Z,19.20
2023-02-03T03:40:40.929Z,19.40
2023-02-03T03:43:40.815Z,19.50
2023-02-03T03:46:50.552Z,19.60
2023-02-03T03:49:47.447Z,19.90
2023-02-03T03:52:43.425Z,20.00
2023-02-03T03:55:38.994Z,20.10
2023-02-03T03:58:34.480Z,20.30
2023-02-03T04:01:29.765Z,20.60
2023-02-03T04:04:27.453Z,20.70
2023-02-03T04:07:22.021Z,20.70
2023-02-03T04:10:28.898Z,20.70
2023-02-03T04:13:23.264Z,20.70
2023-02-03T04:16:17.585Z,20.50
2023-02-03T04:19:20.920Z,20.40
2023-02-03T04:22:15.326Z,20.30
2023-02-03T04:25:09.843Z,20.20
2023-02-03T04:28:04.356Z,20.20
2023-02-03T04:31:01.783Z,20.30
2023-02-03T04:33:56.481Z,20.30
2023-02-03T04:36:50.685Z,20.40
2023-02-03T04:39:45.054Z,20.50
2023-02-03T04:42:43.267Z,20.60
2023-02-03T04:45:37.866Z,20.70
2023-02-03T04:48:41.063Z,20.90
2023-02-03T04:51:35.295Z,21.10
2023-02-03T04:54:29.613Z,21.20
2023-02-03T04:57:24.024Z,21.20
2023-02-03T05:00:18.390Z,21.20
2023-02-03T05:03:12.791Z,21.40
2023-02-03T05:06:07.394Z,21.60
2023-02-03T05:09:02.150Z,21.50
2023-02-03T05:11:56.536Z,21.50
2023-02-03T05:14:50.752Z,21.60
2023-02-03T05:17:44.946Z,21.70
2023-02-03T05:20:39.262Z,21.70
2023-02-03T05:23:35.513Z,21.90
2023-02-03T05:26:30.544Z,22.00
2023-02-03T05:29:27.386Z,22.00
2023-02-03T05:32:24.507Z,22.00
2023-02-03T05:35:18.992Z,22.00
2023-02-03T05:38:14.196Z,22.00
2023-02-03T05:41:26.595Z,22.00
2023-02-03T05:44:25.499Z,22.10
2023-02-03T05:47:19.865Z,22.20
2023-02-03T05:50:14.181Z,22.10
2023-02-03T05:53:09.047Z,22.10
2023-02-03T05:56:03.351Z,22.00
2023-02-03T05:58:57.732Z,22.10
2023-02-03T06:01:52.147Z,22.20
2023-02-03T06:04:46.470Z,22.40
2023-02-03T06:07:40.961Z,22.40
2023-02-03T06:10:35.684Z,22.30
2023-02-03T06:13:30.210Z,22.10
2023-02-03T06:16:26.172Z,22.10
2023-02-03T06:19:20.531Z,22.20
2023-02-03T06:22:14.813Z,22.00
2023-02-03T06:25:13.125Z,21.90
2023-02-03T06:28:07.798Z,22.00
2023-02-03T06:31:02.467Z,22.10
2023-02-03T06:33:58.977Z,22.10
2023-02-03T06:36:53.284Z,22.20
2023-02-03T06:39:50.422Z,22.10
2023-02-03T06:42:52.375Z,22.00
2023-02-03T06:45:49.923Z,22.00
2023-02-03T06:48:44.199Z,22.00
2023-02-03T06:51:38.596Z,22.00
2023-02-03T06:54:41.681Z,21.90
2023-02-03T06:57:36.007Z,21.90
2023-02-03T07:00:30.664Z,21.90
2023-02-03T07:03:34.124Z,21.90
2023-02-03T07:06:30.526Z,22.00
2023-02-03T07:09:24.878Z,22.00
2023-02-03T07:12:19.289Z,22.00
2023-02-03T07:15:14.869Z,21.90
2023-02-03T07:18:09.152Z,21.90
2023-02-03T07:21:07.835Z,21.90
2023-02-03T07:24:03.645Z,21.90
2023-02-03T07:26:57.941Z,22.00
2023-02-03T07:29:52.240Z,22.10
2023-02-03T07:32:54.895Z,22.10
2023-02-03T07:36:00.709Z,22.10
2023-02-03T07:38:55.004Z,22.10
2023-02-03T07:41:50.904Z,22.10
2023-02-03T07:44:47.978Z,22.20
2023-02-03T07:47:43.906Z,22.20
2023-02-03T07:50:38.185Z,22.20
2023-02-03T07:53:33.259Z,22.20
2023-02-03T07:56:27.516Z,22.10
2023-02-03T07:59:21.767Z,22.00
2023-02-03T08:02:16.145Z,22.00
2023-02-03T08:05:14.546Z,22.00
2023-02-03T08:08:13.117Z,22.00
2023-02-03T08:11:08.103Z,22.00
2023-02-03T08:14:02.559Z,22.00
2023-02-03T08:16:57.038Z,22.00
2023-02-03T08:19:51.312Z,22.00
2023-02-03T08:22:45.873Z,22.00
2023-02-03T08:25:40.198Z,21.90
2023-02-03T08:28:34.531Z,21.70
2023-02-03T08:31:28.885Z,21.70
2023-02-03T08:34:23.290Z,21.70
2023-02-03T08:37:19.782Z,21.60
2023-02-03T08:40:14.828Z,21.70
2023-02-03T08:43:09.146Z,21.60
2023-02-03T08:46:11.313Z,21.60
2023-02-03T08:49:05.678Z,21.60
2023-02-03T08:52:00.873Z,21.60
2023-02-03T08:54:55.150Z,21.60
2023-02-03T08:57:49.588Z,21.40
2023-02-03T09:00:44.370Z,21.40
2023-02-03T09:03:42.765Z,21.40
2023-02-03T09:06:37.920Z,21.30
2023-02-03T09:09:35.374Z,21.20
2023-02-03T09:12:29.821Z,21.10
2023-02-03T09:15:24.152Z,21.00
2023-02-03T09:18:27.024Z,20.80
2023-02-03T09:21:34.238Z,20.70
2023-02-03T09:24:33.241Z,20.70
2023-02-03T09:27:27.623Z,20.70
2023-02-03T09:30:22.266Z,20.60
2023-02-03T09:33:16.697Z,20.60
2023-02-03T09:36:11.797Z,20.50
2023-02-03T09:39:06.219Z,20.50
2023-02-03T09:42:15.651Z,20.40
2023-02-03T09:45:30.412Z,20.30
2023-02-03T09:48:36.807Z,20.30
2023-02-03T09:51:47.505Z,20.30
2023-02-03T09:55:03.208Z,20.30
2023-02-03T09:58:08.601Z,20.30
2023-02-03T10:01:07.586Z,20.20
2023-02-03T10:04:29.167Z,20.20
2023-02-03T10:07:41.076Z,20.10
2023-02-03T10:10:48.352Z,20.10
2023-02-03T10:14:14.910Z,20.00
2023-02-03T10:17:30.516Z,19.90
2023-02-03T10:20:41.011Z,19.80
2023-02-03T10:23:42.189Z,19.70
2023-02-03T10:26:37.190Z,19.80
2023-02-03T10:29:44.049Z,19.80
2023-02-03T10:32:41.240Z,19.80
2023-02-03T10:35:48.736Z,19.70
2023-02-03T10:39:05.196Z,19.60
2023-02-03T10:41:59.780Z,19.70
2023-02-03T10:45:01.474Z,19.70
2023-02-03T10:47:57.608Z,19.70
2023-02-03T10:50:53.752Z,19.60
2023-02-03T10:53:48.629Z,19.60
2023-02-03T10:56:43.278Z,19.60
2023-02-03T10:59:42.025Z,19.60
2023-02-03T11:02:36.784Z,19.50
2023-02-03T11:05:31.297Z,19.40
2023-02-03T11:08:32.313Z,19.40
2023-02-03T11:11:36.731Z,19.40
2023-02-03T11:14:39.758Z,19.50
2023-02-03T11:17:38.038Z,19.50
2023-02-03T11:20:36.634Z,19.50
2023-02-03T11:23:30.981Z,19.50
2023-02-03T11:26:32.563Z,19.50
2023-02-03T11:29:30.471Z,19.50
2023-02-03T11:32:44.627Z,19.50
2023-02-03T11:35:39.504Z,19.50
2023-02-03T11:38:43.510Z,19.40
2023-02-03T11:41:42.232Z,19.40
2023-02-03T11:44:36.662Z,19.40
2023-02-03T11:47:31.183Z,19.40
2023-02-03T11:51:02.372Z,19.30
2023-02-03T11:54:05.261Z,19.30
2023-02-03T11:57:10.874Z,19.20
2023-02-03T12:00:14.641Z,19.20
2023-02-03T12:03:27.386Z,19.20
2023-02-03T12:06:29.553Z,19.20
2023-02-03T12:10:00.572Z,19.20
2023-02-03T12:13:23.674Z,19.20
2023-02-03T12:16:30.028Z,19.20
2023-02-03T12:19:58.173Z,19.20
2023-02-03T12:23:16.954Z,19.10
2023-02-03T12:26:32.769Z,19.10
2023-02-03T12:29:55.484Z,19.00
2023-02-03T12:32:58.549Z,19.00
2023-02-03T12:36:01.971Z,19.00
2023-02-03T12:39:04.631Z,18.90
2023-02-03T12:42:41.306Z,18.90
2023-02-03T12:45:39.512Z,18.80
2023-02-03T12:49:13.229Z,18.80
2023-02-03T12:52:14.273Z,18.70
2023-02-03T12:55:39.263Z,18.70
2023-02-03T12:58:44.511Z,18.60
2023-02-03T13:01:46.980Z,18.60
2023-02-03T13:04:57.170Z,18.50
2023-02-03T13:08:20.941Z,18.50
2023-02-03T13:11:42.602Z,18.40
2023-02-03T13:14:51.570Z,18.30
2023-02-03T13:17:50.468Z,18.30
2023-02-03T13:20:44.791Z,18.20
2023-02-03T13:23:39.207Z,18.20
2023-02-03T13:26:55.088Z,18.20
2023-02-03T13:30:16.977Z,18.20
2023-02-03T13:33:30.133Z,18.20
2023-02-03T13:36:55.070Z,18.10
2023-02-03T13:40:26.363Z,18.00
2023-02-03T13:43:37.770Z,18.00
2023-02-03T13:46:37.909Z,17.90
2023-02-03T13:49:40.424Z,17.80
2023-02-03T13:52:57.577Z,17.80
2023-02-03T13:55:59.948Z,17.80
2023-02-03T13:59:06.558Z,17.70
2023-02-03T14:02:25.866Z,17.70
2023-02-03T14:05:46.184Z,17.70
2023-02-03T14:08:40.393Z,17.60
2023-02-03T14:11:37.699Z,17.60
2023-02-03T14:14:51.517Z,17.60
2023-02-03T14:17:45.785Z,17.60
2023-02-03T14:20:43.147Z,17.50
2023-02-03T14:23:41.666Z,17.50
2023-02-03T14:26:45.023Z,17.40
2023-02-03T14:29:39.421Z,17.40
2023-02-03T14:32:58.900Z,17.30
2023-02-03T14:35:53.302Z,17.30
2023-02-03T14:38:47.571Z,17.20
2023-02-03T14:41:50.948Z,17.20
2023-02-03T14:44:58.107Z,17.10
2023-02-03T14:48:20.254Z,17.10
2023-02-03T14:51:23.804Z,17.10
2023-02-03T14:54:39.624Z,17.00
2023-02-03T14:57:58.647Z,17.00
2023-02-03T15:00:55.203Z,17.00
2023-02-03T15:04:15.187Z,16.90
2023-02-03T15:07:09.714Z,16.90
2023-02-03T15:10:04.418Z,16.90
2023-02-03T15:13:00.211Z,16.80
2023-02-03T15:16:05.754Z,16.80
2023-02-03T15:19:08.501Z,16.80
2023-02-03T15:22:03.491Z,16.80
2023-02-03T15:25:05.582Z,16.80
2023-02-03T15:28:21.070Z,16.80
2023-02-03T15:31:28.364Z,16.80
2023-02-03T15:34:53.406Z,16.80
2023-02-03T15:38:00.154Z,16.80
2023-02-03T15:40:59.191Z,16.80
2023-02-03T15:44:04.375Z,16.80
2023-02-03T15:47:01.686Z,16.80
2023-02-03T15:50:11.151Z,16.80
2023-02-03T15:53:46.696Z,16.80
2023-02-03T15:56:57.707Z,16.70
2023-02-03T16:00:03.509Z,16.70
2023-02-03T16:03:00.181Z,16.70
2023-02-03T16:05:56.068Z,16.60
2023-02-03T16:08:53.160Z,16.60
2023-02-03T16:11:48.031Z,16.60
2023-02-03T16:14:43.331Z,16.60
2023-02-03T16:17:40.430Z,16.60
2023-02-03T16:20:37.986Z,16.50
2023-02-03T16:23:32.573Z,16.50
2023-02-03T16:26:28.948Z,16.40
2023-02-03T16:29:41.155Z,16.40
2023-02-03T16:32:53.806Z,16.40
2023-02-03T16:36:05.997Z,16.30
2023-02-03T16:39:22.817Z,16.20
2023-02-03T16:42:40.747Z,16.20
2023-02-03T16:45:53.398Z,16.20
2023-02-03T16:52:15.742Z,16.10
2023-02-03T16:55:11.991Z,16.10
2023-02-03T16:58:06.349Z,16.10
2023-02-03T17:01:03.712Z,16.10
2023-02-03T17:03:57.492Z,16.10
2023-02-03T17:06:52.874Z,16.00
2023-02-03T17:09:47.110Z,16.00
2023-02-03T17:12:42.054Z,16.00
2023-02-03T17:15:41.160Z,15.90
2023-02-03T17:18:36.288Z,15.90
2023-02-03T17:21:31.948Z,15.90
2023-02-03T17:24:26.282Z,15.90
2023-02-03T17:27:20.682Z,15.90
2023-02-03T17:30:15.543Z,15.90
2023-02-03T17:33:14.306Z,15.80
2023-02-03T17:36:11.830Z,15.80
2023-02-03T17:55:00.426Z,15.70
2023-02-03T17:57:59.019Z,15.70
2023-02-03T18:00:53.344Z,15.80
2023-02-03T18:03:49.444Z,15.80
2023-02-03T18:06:43.974Z,15.80
2023-02-03T18:09:38.208Z,15.80
2023-02-03T18:12:33.157Z,15.70
2023-02-03T18:15:29.718Z,15.70
2023-02-03T18:18:27.120Z,15.70
2023-02-03T18:21:23.160Z,15.60
2023-02-03T18:24:19.694Z,15.70
2023-02-03T18:27:18.040Z,15.70
2023-02-03T18:30:13.283Z,15.60
2023-02-03T18:33:07.523Z,15.60
2023-02-03T18:36:03.122Z,15.60
2023-02-03T18:38:57.563Z,15.60
2023-02-03T18:41:54.651Z,15.60
2023-02-03T18:44:49.283Z,15.60
2023-02-03T18:47:43.694Z,15.60
2023-02-03T18:50:38.040Z,15.70
2023-02-03T18:53:34.004Z,15.70
2023-02-03T18:56:36.472Z,15.80
2023-02-03T18:59:30.948Z,15.80
2023-02-03T19:02:29.507Z,15.80
2023-02-03T19:05:24.205Z,15.80
2023-02-03T19:08:21.076Z,15.90
2023-02-03T19:11:16.378Z,15.90
2023-02-03T19:14:10.851Z,15.90
2023-02-03T19:17:14.901Z,16.00
2023-02-03T19:20:09.918Z,16.00
2023-02-03T19:23:05.814Z,16.00
2023-02-03T19:26:00.305Z,16.00
2023-02-03T19:28:54.986Z,16.00
2023-02-03T19:31:49.368Z,16.00
2023-02-03T19:34:43.902Z,16.10
2023-02-03T19:37:38.957Z,16.10
2023-02-03T19:40:33.742Z,16.10
2023-02-03T19:43:28.134Z,16.20
2023-02-03T19:46:23.482Z,16.10
2023-02-03T19:49:17.958Z,16.20
2023-02-03T19:52:13.454Z,16.20
2023-02-03T19:55:08.541Z,16.10
2023-02-03T19:58:03.015Z,16.20
2023-02-03T20:00:57.383Z,16.20
2023-02-03T20:03:53.019Z,16.20
2023-02-03T20:06:47.560Z,16.30
2023-02-03T20:09:42.087Z,16.30
2023-02-03T20:12:38.727Z,16.30
2023-02-03T20:15:33.208Z,16.30
2023-02-03T20:18:27.838Z,16.40
2023-02-03T20:21:24.997Z,16.40
2023-02-03T20:24:19.542Z,16.40
2023-02-03T20:27:15.968Z,16.50
2023-02-03T20:30:11.076Z,16.50
2023-02-03T20:33:06.136Z,16.50
2023-02-03T20:36:01.208Z,16.50
2023-02-03T20:38:55.844Z,16.60
2023-02-03T20:41:53.075Z,16.60
2023-02-03T20:44:47.629Z,16.60
2023-02-03T20:47:42.288Z,16.70
2023-02-03T20:50:42.396Z,16.70
2023-02-03T20:53:38.172Z,16.70
2023-02-03T20:56:32.599Z,16.70
2023-02-03T20:59:26.972Z,16.80
2023-02-03T21:02:24.253Z,16.80
2023-02-03T21:05:24.992Z,16.80
2023-02-03T21:08:21.799Z,16.90
2023-02-03T21:11:18.694Z,16.90
2023-02-03T21:14:23.926Z,16.90
2023-02-03T21:17:28.275Z,17.00
2023-02-03T21:20:31.921Z,17.00
2023-02-03T21:23:34.358Z,17.00
2023-02-03T21:26:30.859Z,17.10
2023-02-03T21:29:26.726Z,17.00
2023-02-03T21:32:21.173Z,17.00
2023-02-03T21:35:36.630Z,17.10
2023-02-03T21:38:33.692Z,17.10
2023-02-03T21:41:36.564Z,17.20
2023-02-03T21:44:36.845Z,17.20
2023-02-03T21:47:32.464Z,17.30
2023-02-03T21:50:38.237Z,17.40
2023-02-03T21:53:36.789Z,17.40
2023-02-03T21:56:40.152Z,17.40
2023-02-03T21:59:43.602Z,17.50
2023-02-03T22:03:01.204Z,17.60
2023-02-03T22:06:09.647Z,17.70
2023-02-03T22:09:05.726Z,17.70
2023-02-03T22:12:01.282Z,17.80
2023-02-03T22:14:55.838Z,17.80
2023-02-03T22:17:51.100Z,17.90
2023-02-03T22:20:45.611Z,17.90
2023-02-03T22:23:40.728Z,17.90
2023-02-03T22:26:38.099Z,18.00
2023-02-03T22:29:32.167Z,18.10
2023-02-03T22:32:26.651Z,18.10
2023-02-03T22:35:23.061Z,18.20
2023-02-03T22:38:17.803Z,18.30
2023-02-03T22:41:15.805Z,18.30
2023-02-03T22:44:10.208Z,18.40
2023-02-03T22:47:04.570Z,18.50
2023-02-03T22:49:58.962Z,18.50
2023-02-03T22:52:58.289Z,18.60
2023-02-03T22:55:52.739Z,18.60
2023-02-03T22:58:47.116Z,18.60
2023-02-03T23:01:41.452Z,18.60
2023-02-03T23:04:35.843Z,18.70
2023-02-03T23:07:32.339Z,18.80
2023-02-03T23:10:32.040Z,18.80
2023-02-03T23:13:26.766Z,18.90
2023-02-03T23:16:21.168Z,19.10
2023-02-03T23:19:15.974Z,19.20
2023-02-03T23:22:10.447Z,19.30
2023-02-03T23:25:05.621Z,19.30
2023-02-03T23:28:00.006Z,19.30
2023-02-03T23:30:54.578Z,19.30
2023-02-03T23:34:08.720Z,19.40
2023-02-03T23:37:03.087Z,19.50
2023-02-03T23:39:57.750Z,19.70
2023-02-03T23:42:52.387Z,19.90
2023-02-03T23:45:46.849Z,20.20
2023-02-03T23:48:41.463Z,20.30
2023-02-03T23:51:35.849Z,20.40
2023-02-03T23:54:30.562Z,20.40
2023-02-03T23:57:24.886Z,20.50
